createdAt,value
2022-12-16T00:00:10.168Z,16.23
2022-12-16T00:02:37.346Z,13.13
2022-12-16T00:05:04.850Z,12.70
2022-12-16T00:07:31.681Z,11.88
2022-12-16T00:09:58.472Z,13.63
2022-12-16T00:12:25.984Z,12.13
2022-12-16T00:14:52.866Z,13.63
2022-12-16T00:17:21.938Z,15.20
2022-12-16T00:19:48.805Z,13.52
2022-12-16T00:22:15.617Z,14.30
2022-12-16T00:24:42.501Z,12.80
2022-12-16T00:27:09.527Z,15.45
2022-12-16T00:29:36.597Z,14.27
2022-12-16T00:32:03.837Z,12.98
2022-12-16T00:34:30.712Z,11.55
2022-12-16T00:36:57.493Z,14.73
2022-12-16T00:39:24.373Z,13.35
2022-12-16T00:41:51.990Z,13.25
2022-12-16T00:44:19.004Z,11.70
2022-12-16T00:46:45.877Z,14.45
2022-12-16T00:49:12.880Z,14.35
2022-12-16T00:51:39.726Z,15.95
2022-12-16T00:54:06.588Z,13.65
2022-12-16T00:56:33.497Z,16.15
2022-12-16T00:59:00.299Z,16.05
2022-12-16T01:01:27.447Z,15.65
2022-12-16T01:03:57.934Z,14.60
2022-12-16T01:06:25.008Z,14.23
2022-12-16T01:08:51.977Z,14.55
2022-12-16T01:11:20.733Z,14.13
2022-12-16T01:13:51.989Z,15.15
2022-12-16T01:16:19.761Z,15.38
2022-12-16T01:18:46.796Z,13.60
2022-12-16T01:21:15.756Z,16.73
2022-12-16T01:23:43.401Z,13.93
2022-12-16T01:26:17.865Z,15.30
2022-12-16T01:28:48.086Z,13.10
2022-12-16T01:31:18.337Z,16.90
2022-12-16T01:33:45.531Z,12.50
2022-12-16T01:36:12.408Z,15.02
2022-12-16T01:38:42.738Z,13.45
2022-12-16T01:41:11.927Z,13.43
2022-12-16T01:43:41.291Z,12.30
2022-12-16T01:46:23.752Z,13.10
2022-12-16T01:49:16.956Z,12.23
2022-12-16T01:51:52.090Z,12.50
2022-12-16T01:54:30.634Z,12.23
2022-12-16T01:57:06.713Z,12.98
2022-12-16T01:59:39.289Z,17.02
2022-12-16T02:02:06.705Z,14.65
2022-12-16T02:04:33.687Z,11.50
2022-12-16T02:07:01.439Z,15.85
2022-12-16T02:09:28.327Z,15.32
2022-12-16T02:12:30.354Z,15.52
2022-12-16T02:15:38.800Z,13.50
2022-12-16T02:18:31.213Z,13.30
2022-12-16T02:21:28.848Z,14.77
2022-12-16T02:24:17.337Z,12.75
2022-12-16T02:26:59.171Z,12.07
2022-12-16T02:29:54.627Z,12.77
2022-12-16T02:32:30.343Z,11.00
2022-12-16T02:35:40.146Z,11.68
2022-12-16T02:38:32.487Z,11.57
2022-12-16T02:41:06.728Z,12.50
2022-12-16T02:43:59.179Z,11.82
2022-12-16T02:46:30.163Z,12.68
2022-12-16T02:48:57.075Z,13.10
2022-12-16T02:51:27.191Z,17.60
2022-12-16T02:53:55.638Z,13.80
2022-12-16T02:57:04.967Z,12.10
2022-12-16T02:59:56.138Z,13.70
2022-12-16T03:02:30.730Z,11.55
2022-12-16T03:05:17.701Z,11.52
2022-12-16T03:07:48.256Z,14.35
2022-12-16T03:10:20.606Z,13.25
2022-12-16T03:12:47.464Z,16.80
2022-12-16T03:15:20.937Z,16.83
2022-12-16T03:17:49.784Z,14.65
2022-12-16T03:20:27.176Z,16.58
2022-12-16T03:22:58.995Z,15.63
2022-12-16T03:25:28.756Z,13.32
2022-12-16T03:28:25.612Z,15.70
2022-12-16T03:31:05.262Z,16.13
2022-12-16T03:33:42.755Z,17.88
2022-12-16T03:36:24.676Z,14.52
2022-12-16T03:38:52.823Z,17.98
2022-12-16T03:41:23.515Z,16.88
2022-12-16T03:43:51.455Z,18.75
2022-12-16T03:46:18.997Z,17.17
2022-12-16T03:48:51.526Z,16.42
2022-12-16T03:51:20.761Z,14.07
2022-12-16T03:53:47.698Z,15.52
2022-12-16T03:56:14.692Z,14.63
2022-12-16T03:58:41.796Z,14.75
2022-12-16T04:01:10.192Z,15.68
2022-12-16T04:03:38.457Z,15.55
2022-12-16T04:06:06.409Z,16.75
2022-12-16T04:08:33.305Z,15.25
2022-12-16T04:11:18.944Z,16.77
2022-12-16T04:14:04.386Z,15.48
2022-12-16T04:16:50.564Z,17.50
2022-12-16T04:19:48.824Z,18.75
2022-12-16T04:22:44.509Z,14.70
2022-12-16T04:25:18.783Z,16.65
2022-12-16T04:27:46.897Z,17.60
2022-12-16T04:30:19.967Z,21.73
2022-12-16T04:33:15.480Z,17.65
2022-12-16T04:36:00.914Z,23.80
2022-12-16T04:38:46.700Z,23.02
2022-12-16T04:41:32.396Z,21.08
2022-12-16T04:44:18.340Z,16.67
2022-12-16T04:47:04.256Z,24.83
2022-12-16T04:49:50.295Z,21.50
2022-12-16T04:52:36.875Z,24.17
2022-12-16T04:55:23.787Z,23.52
2022-12-16T04:58:14.996Z,22.35
2022-12-16T05:01:01.560Z,22.38
2022-12-16T05:03:47.782Z,19.55
2022-12-16T05:06:34.776Z,20.33
2022-12-16T05:09:20.669Z,24.75
2022-12-16T05:12:07.614Z,22.83
2022-12-16T05:14:53.633Z,22.17
2022-12-16T05:17:39.743Z,23.80
2022-12-16T05:20:26.242Z,22.83
2022-12-16T05:23:15.288Z,20.00
2022-12-16T05:26:01.401Z,22.35
2022-12-16T05:28:47.486Z,23.45
2022-12-16T05:31:33.022Z,22.75
2022-12-16T05:34:18.447Z,22.67
2022-12-16T05:37:03.808Z,23.02
2022-12-16T05:39:49.285Z,22.20
2022-12-16T05:42:34.534Z,23.13
2022-12-16T05:45:20.137Z,25.40
2022-12-16T05:48:08.702Z,23.80
2022-12-16T05:50:55.286Z,19.77
2022-12-16T05:53:41.945Z,20.55
2022-12-16T05:56:27.282Z,22.98
2022-12-16T05:59:12.909Z,23.55
2022-12-16T06:01:58.678Z,24.98
2022-12-16T06:04:44.032Z,20.35
2022-12-16T06:07:29.510Z,20.25
2022-12-16T06:10:14.990Z,21.17
2022-12-16T06:13:00.581Z,22.95
2022-12-16T06:15:46.003Z,25.98
2022-12-16T06:18:31.536Z,24.65
2022-12-16T06:21:17.043Z,26.45
2022-12-16T06:24:02.388Z,28.55
2022-12-16T06:26:47.887Z,26.30
2022-12-16T06:29:33.358Z,31.58
2022-12-16T06:32:19.089Z,28.75
2022-12-16T06:35:04.496Z,28.67
2022-12-16T06:37:49.912Z,27.58
2022-12-16T06:40:35.495Z,31.45
2022-12-16T06:43:20.936Z,31.55
2022-12-16T06:46:06.952Z,30.55
2022-12-16T06:48:52.183Z,29.38
2022-12-16T06:51:37.627Z,34.60
2022-12-16T06:54:23.399Z,31.15
2022-12-16T06:57:08.789Z,34.20
2022-12-16T06:59:54.328Z,37.47
2022-12-16T07:02:59.722Z,37.10
2022-12-16T07:05:45.000Z,35.28
2022-12-16T07:08:30.657Z,31.73
2022-12-16T07:11:17.393Z,33.55
2022-12-16T07:14:03.897Z,34.75
2022-12-16T07:16:49.708Z,35.28
2022-12-16T07:19:35.130Z,36.42
2022-12-16T07:22:25.182Z,36.90
2022-12-16T07:25:10.730Z,36.38
2022-12-16T07:27:56.197Z,39.17
2022-12-16T07:30:41.669Z,35.63
2022-12-16T07:33:27.222Z,40.83
2022-12-16T07:36:12.701Z,39.53
2022-12-16T07:38:58.372Z,37.58
2022-12-16T07:41:44.045Z,39.47
2022-12-16T07:44:29.478Z,39.17
2022-12-16T07:47:15.220Z,39.53
2022-12-16T07:50:00.766Z,40.38
2022-12-16T07:52:46.357Z,38.83
2022-12-16T07:55:31.988Z,39.50
2022-12-16T07:58:17.431Z,36.25
2022-12-16T08:01:08.939Z,36.47
2022-12-16T08:03:54.845Z,38.42
2022-12-16T08:06:41.760Z,38.80
2022-12-16T08:09:27.264Z,38.88
2022-12-16T08:12:12.948Z,37.45
2022-12-16T08:14:58.420Z,41.30
2022-12-16T08:17:43.999Z,41.35
2022-12-16T08:20:29.642Z,37.97
2022-12-16T08:23:15.286Z,38.10
2022-12-16T08:26:00.793Z,39.28
2022-12-16T08:28:46.169Z,37.10
2022-12-16T08:31:31.640Z,36.95
2022-12-16T08:34:17.078Z,37.22
2022-12-16T08:37:02.356Z,36.70
2022-12-16T08:39:59.161Z,42.47
2022-12-16T08:42:53.230Z,37.47
2022-12-16T08:45:39.300Z,36.10
2022-12-16T08:48:25.498Z,41.28
2022-12-16T08:51:10.950Z,36.35
2022-12-16T08:53:56.687Z,36.42
2022-12-16T08:56:42.331Z,36.95
2022-12-16T08:59:27.868Z,37.70
2022-12-16T09:02:13.662Z,36.05
2022-12-16T09:04:59.097Z,40.47
2022-12-16T09:07:44.568Z,35.42
2022-12-16T09:10:32.263Z,43.15
2022-12-16T09:13:32.231Z,39.83
2022-12-16T09:16:19.809Z,40.55
2022-12-16T09:19:05.961Z,40.10
2022-12-16T09:21:52.699Z,38.53
2022-12-16T09:24:40.299Z,40.10
2022-12-16T09:27:25.988Z,34.65
2022-12-16T09:30:11.564Z,38.67
2022-12-16T09:33:01.977Z,36.47
2022-12-16T09:35:47.771Z,38.10
2022-12-16T09:38:34.111Z,34.80
2022-12-16T09:41:45.872Z,40.22
2022-12-16T09:45:01.348Z,35.88
2022-12-16T09:48:21.986Z,37.63
2022-12-16T09:51:11.746Z,33.40
2022-12-16T09:53:59.352Z,36.50
2022-12-16T09:56:51.332Z,34.10
2022-12-16T09:59:49.485Z,33.92
2022-12-16T10:02:38.015Z,40.15
2022-12-16T10:05:46.379Z,39.05
2022-12-16T10:09:05.769Z,31.58
2022-12-16T10:12:17.511Z,32.42
2022-12-16T10:15:30.818Z,31.10
2022-12-16T10:18:23.597Z,27.63
2022-12-16T10:21:13.541Z,30.90
2022-12-16T10:24:20.673Z,28.33
2022-12-16T10:27:28.159Z,29.45
2022-12-16T10:30:14.060Z,32.38
2022-12-16T10:33:05.895Z,28.35
2022-12-16T10:36:06.100Z,29.10
2022-12-16T10:39:03.282Z,34.03
2022-12-16T10:41:55.031Z,31.35
2022-12-16T10:44:54.098Z,29.30
2022-12-16T10:47:41.548Z,31.90
2022-12-16T10:50:32.729Z,32.72
2022-12-16T10:53:23.268Z,30.55
2022-12-16T10:56:53.628Z,34.25
2022-12-16T10:59:39.275Z,30.17
2022-12-16T11:02:38.080Z,26.83
2022-12-16T11:05:54.105Z,32.42
2022-12-16T11:08:49.296Z,32.97
2022-12-16T11:11:44.384Z,35.13
2022-12-16T11:15:12.640Z,32.50
2022-12-16T11:17:56.728Z,33.45
2022-12-16T11:20:44.875Z,40.05
2022-12-16T11:23:42.999Z,34.17
2022-12-16T11:26:37.754Z,39.85
2022-12-16T11:29:38.506Z,40.35
2022-12-16T11:32:45.365Z,43.20
2022-12-16T11:35:37.025Z,45.63
2022-12-16T11:38:28.257Z,44.35
2022-12-16T11:41:14.616Z,43.15
2022-12-16T11:44:08.338Z,38.22
2022-12-16T11:46:54.012Z,35.35
2022-12-16T11:49:52.324Z,38.65
2022-12-16T11:52:41.379Z,42.03
2022-12-16T11:56:04.906Z,39.60
2022-12-16T11:59:08.704Z,36.88
2022-12-16T12:02:22.563Z,36.30
2022-12-16T12:05:09.349Z,37.22
2022-12-16T12:08:23.977Z,39.05
2022-12-16T12:11:42.758Z,38.45
2022-12-16T12:15:00.841Z,44.13
2022-12-16T12:18:12.036Z,37.58
2022-12-16T12:21:33.434Z,38.20
2022-12-16T12:24:45.136Z,37.90
2022-12-16T12:27:52.886Z,32.38
2022-12-16T12:30:41.343Z,33.35
2022-12-16T12:33:56.292Z,36.22
2022-12-16T12:37:03.351Z,36.55
2022-12-16T12:40:08.749Z,40.25
2022-12-16T12:43:06.581Z,34.03
2022-12-16T12:46:30.448Z,36.17
2022-12-16T12:49:50.243Z,37.92
2022-12-16T12:53:07.281Z,32.40
2022-12-16T12:56:01.318Z,32.60
2022-12-16T12:58:53.553Z,32.03
2022-12-16T13:01:47.011Z,34.08
2022-12-16T13:04:39.681Z,30.23
2022-12-16T13:07:26.754Z,31.08
2022-12-16T13:10:30.370Z,31.83
2022-12-16T13:13:34.043Z,28.90
2022-12-16T13:16:22.512Z,27.42
2022-12-16T13:20:03.783Z,29.10
2022-12-16T13:26:12.168Z,25.98
2022-12-16T13:29:01.085Z,29.63
2022-12-16T13:31:49.045Z,31.98
2022-12-16T13:34:34.456Z,27.05
2022-12-16T13:37:31.041Z,36.20
2022-12-16T13:40:40.142Z,37.30
2022-12-16T13:44:02.196Z,36.35
2022-12-16T13:47:10.102Z,36.70
2022-12-16T13:49:55.724Z,33.53
2022-12-16T13:52:58.410Z,38.55
2022-12-16T13:56:23.583Z,36.38
2022-12-16T13:59:23.003Z,33.58
2022-12-16T14:02:39.112Z,35.17
2022-12-16T14:05:38.737Z,34.00
2022-12-16T14:08:31.990Z,32.47
2022-12-16T14:11:22.253Z,33.38
2022-12-16T14:20:49.117Z,27.70
2022-12-16T14:23:58.244Z,29.33
2022-12-16T14:26:45.114Z,29.88
2022-12-16T14:29:44.720Z,23.17
2022-12-16T14:32:49.178Z,28.50
2022-12-16T14:35:44.995Z,30.38
2022-12-16T14:38:43.817Z,31.67
2022-12-16T14:41:49.619Z,24.35
2022-12-16T14:44:42.266Z,23.55
2022-12-16T14:47:49.140Z,29.45
2022-12-16T14:50:54.802Z,24.50
2022-12-16T14:53:50.050Z,29.98
2022-12-16T14:56:40.921Z,27.35
2022-12-16T15:02:29.098Z,24.40
2022-12-16T15:05:15.457Z,26.60
2022-12-16T15:08:00.991Z,27.35
2022-12-16T15:10:47.453Z,27.42
2022-12-16T15:13:37.746Z,31.77
2022-12-16T15:16:39.570Z,27.42
2022-12-16T15:19:25.425Z,32.55
2022-12-16T15:22:11.184Z,27.55
2022-12-16T15:24:57.813Z,34.28
2022-12-16T15:27:52.110Z,29.13
2022-12-16T15:31:01.634Z,30.25
2022-12-16T15:33:54.786Z,31.80
2022-12-16T15:36:42.991Z,30.55
2022-12-16T15:39:56.337Z,28.40
2022-12-16T15:42:49.085Z,25.95
2022-12-16T15:45:50.434Z,33.53
2022-12-16T15:48:51.795Z,29.05
2022-12-16T15:51:52.087Z,31.88
2022-12-16T15:54:42.920Z,27.13
2022-12-16T15:57:50.834Z,27.95
2022-12-16T16:00:49.152Z,22.33
2022-12-16T16:03:56.831Z,22.75
2022-12-16T16:06:45.096Z,21.92
2022-12-16T16:09:52.025Z,23.13
2022-12-16T16:12:40.321Z,23.38
2022-12-16T16:15:29.529Z,19.77
2022-12-16T16:18:21.973Z,21.80
2022-12-16T16:21:08.404Z,20.45
2022-12-16T16:23:54.023Z,21.52
2022-12-16T16:26:44.997Z,25.30
2022-12-16T16:29:30.846Z,20.58
2022-12-16T16:32:16.407Z,20.33
2022-12-16T16:35:02.106Z,25.30
2022-12-16T16:37:47.681Z,27.35
2022-12-16T16:40:56.578Z,27.83
2022-12-16T16:43:43.498Z,25.63
2022-12-16T16:46:56.869Z,25.23
2022-12-16T16:49:48.393Z,23.23
2022-12-16T16:52:38.920Z,25.92
2022-12-16T16:55:26.887Z,22.42
2022-12-16T16:58:12.577Z,22.50
2022-12-16T17:00:58.018Z,25.83
2022-12-16T17:03:44.576Z,22.55
2022-12-16T17:06:30.690Z,27.75
2022-12-16T17:09:16.127Z,22.40
2022-12-16T17:12:01.739Z,24.73
2022-12-16T17:14:47.272Z,28.83
2022-12-16T17:17:32.714Z,23.10
2022-12-16T17:20:18.393Z,26.75
2022-12-16T17:23:03.970Z,27.33
2022-12-16T17:25:49.591Z,24.92
2022-12-16T17:28:35.147Z,27.60
2022-12-16T17:31:20.522Z,21.40
2022-12-16T17:34:05.766Z,26.05
2022-12-16T17:36:51.262Z,25.90
2022-12-16T17:39:53.230Z,23.15
2022-12-16T17:42:44.810Z,28.02
2022-12-16T17:45:31.734Z,22.55
2022-12-16T17:48:17.308Z,25.05
2022-12-16T17:51:02.758Z,25.77
2022-12-16T17:53:54.545Z,23.25
2022-12-16T17:56:42.591Z,21.98
2022-12-16T17:59:28.752Z,22.50
2022-12-16T18:02:14.230Z,23.67
2022-12-16T18:04:59.667Z,27.02
2022-12-16T18:07:45.225Z,20.88
2022-12-16T18:10:30.748Z,24.58
2022-12-16T18:13:16.337Z,27.95
2022-12-16T18:16:01.799Z,24.17
2022-12-16T18:18:47.402Z,21.45
2022-12-16T18:21:33.125Z,26.15
2022-12-16T18:24:18.782Z,23.85
2022-12-16T18:27:04.269Z,24.25
2022-12-16T18:29:49.845Z,25.27
2022-12-16T18:32:35.595Z,23.17
2022-12-16T18:35:21.740Z,26.08
2022-12-16T18:38:07.937Z,27.90
2022-12-16T18:40:54.796Z,27.63
2022-12-16T18:43:39.998Z,25.35
2022-12-16T18:46:25.633Z,25.65
2022-12-16T18:49:10.985Z,29.48
2022-12-16T18:51:56.504Z,24.95
2022-12-16T18:54:41.954Z,27.60
2022-12-16T18:57:27.560Z,30.42
2022-12-16T19:00:13.195Z,31.58
2022-12-16T19:02:59.039Z,24.25
2022-12-16T19:05:44.733Z,24.95
2022-12-16T19:08:30.474Z,22.77
2022-12-16T19:11:17.508Z,21.75
2022-12-16T19:14:03.059Z,23.27
2022-12-16T19:16:48.855Z,25.65
2022-12-16T19:19:48.043Z,30.98
2022-12-16T19:22:33.692Z,26.50
2022-12-16T19:25:19.192Z,24.13
2022-12-16T19:28:04.893Z,27.35
2022-12-16T19:30:50.537Z,26.02
2022-12-16T19:33:36.092Z,26.65
2022-12-16T19:36:21.436Z,23.63
2022-12-16T19:39:06.949Z,33.13
2022-12-16T19:41:52.399Z,26.50
2022-12-16T19:44:39.329Z,24.98
2022-12-16T19:47:25.402Z,25.15
2022-12-16T19:50:10.965Z,23.67
2022-12-16T19:52:56.583Z,24.48
2022-12-16T19:55:42.192Z,30.10
2022-12-16T19:58:27.851Z,30.48
2022-12-16T20:01:13.347Z,30.20
2022-12-16T20:03:58.680Z,32.83
2022-12-16T20:06:44.388Z,31.63
2022-12-16T20:09:30.054Z,30.83
2022-12-16T20:12:15.569Z,34.30
2022-12-16T20:15:00.835Z,31.70
2022-12-16T20:17:46.433Z,33.55
2022-12-16T20:20:32.097Z,35.75
2022-12-16T20:23:17.697Z,28.92
2022-12-16T20:26:03.721Z,33.08
2022-12-16T20:28:49.313Z,28.45
2022-12-16T20:31:34.523Z,29.25
2022-12-16T20:34:19.935Z,30.58
2022-12-16T20:37:05.819Z,30.17
2022-12-16T20:39:56.707Z,32.88
2022-12-16T20:42:44.547Z,31.10
2022-12-16T20:45:30.131Z,34.80
2022-12-16T20:48:15.552Z,34.13
2022-12-16T20:51:01.196Z,33.55
2022-12-16T20:53:47.099Z,42.83
2022-12-16T20:56:32.707Z,32.30
2022-12-16T20:59:18.332Z,36.55
2022-12-16T21:05:09.195Z,40.22
2022-12-16T21:07:55.221Z,34.50
2022-12-16T21:10:42.802Z,34.95
2022-12-16T21:13:34.919Z,37.83
2022-12-16T21:16:24.012Z,28.95
2022-12-16T21:19:10.429Z,36.17
2022-12-16T21:21:56.606Z,32.13
2022-12-16T21:24:42.265Z,27.98
2022-12-16T21:27:28.144Z,32.95
2022-12-16T21:30:13.868Z,32.45
2022-12-16T21:32:59.944Z,27.02
2022-12-16T21:35:45.435Z,32.55
2022-12-16T21:38:32.021Z,34.20
2022-12-16T21:41:17.788Z,33.47
2022-12-16T21:44:03.003Z,30.83
2022-12-16T21:46:48.706Z,30.77
2022-12-16T21:49:33.980Z,34.60
2022-12-16T21:52:19.402Z,33.15
2022-12-16T21:55:04.821Z,31.60
2022-12-16T21:57:50.331Z,36.72
2022-12-16T22:00:36.195Z,30.67
2022-12-16T22:03:21.714Z,31.73
2022-12-16T22:06:07.085Z,32.30
2022-12-16T22:08:52.907Z,31.38
2022-12-16T22:11:41.373Z,31.10
2022-12-16T22:14:26.966Z,33.75
2022-12-16T22:17:12.664Z,27.65
2022-12-16T22:19:57.941Z,29.63
2022-12-16T22:22:43.511Z,30.20
2022-12-16T22:25:29.068Z,25.58
2022-12-16T22:28:14.723Z,27.92
2022-12-16T22:31:00.275Z,30.23
2022-12-16T22:33:45.429Z,28.63
2022-12-16T22:36:33.040Z,29.98
2022-12-16T22:39:18.605Z,31.77
2022-12-16T22:42:04.033Z,31.85
2022-12-16T22:44:49.653Z,27.10
2022-12-16T22:47:35.208Z,28.50
2022-12-16T22:50:20.799Z,32.00
2022-12-16T22:53:06.262Z,35.90
2022-12-16T22:55:51.782Z,29.70
2022-12-16T22:58:37.933Z,28.70
2022-12-16T23:01:27.048Z,30.60
2022-12-16T23:04:15.185Z,29.27
2022-12-16T23:07:00.416Z,31.33
2022-12-16T23:09:46.048Z,28.83
2022-12-16T23:12:31.584Z,29.45
2022-12-16T23:15:17.284Z,26.35
2022-12-16T23:18:02.575Z,27.00
2022-12-16T23:20:48.174Z,28.63
2022-12-16T23:23:33.612Z,24.20
2022-12-16T23:26:21.128Z,23.17
2022-12-16T23:29:11.833Z,27.00
2022-12-16T23:31:58.007Z,24.95
2022-12-16T23:34:45.953Z,23.33
2022-12-16T23:37:32.948Z,24.60
2022-12-16T23:40:18.422Z,22.95
2022-12-16T23:43:05.824Z,22.10
2022-12-16T23:45:51.801Z,25.17
2022-12-16T23:48:37.622Z,24.35
2022-12-16T23:51:23.011Z,25.63
2022-12-16T23:54:08.575Z,24.08
2022-12-16T23:56:54.119Z,21.10
2022-12-16T23:59:41.710Z,18.58
